Monday, October 15, 2018, 11:39 PM EDT
Back to Local

K1P1, Plymouth, Plymouth Municipal Airport

Location: Plymouth, NH, United States Lat: 43.779
Local Time: 11:39 PM EDT ( 3:39 GMT) Lon: -71.754
Time Zone: US/Eastern Elev: 505 ft

Show me the last for .
Show Decoded

2018-10-15 23:15 METAR K1P1 160315Z AUTO 29005KT 10SM -RA SCT039 BKN046 OVC080 10/10 A2970 RMK
                 AO2 T01000095 =
2018-10-15 22:55 METAR K1P1 160255Z AUTO 00000KT 10SM -RA SCT037 BKN065 OVC080 08/08 A2970 RMK
                 AO2 P0006 60014 T00800076 =
2018-10-15 22:35 METAR K1P1 160235Z AUTO 00000KT 10SM RA SCT005 BKN041 OVC047 07/07 A2970 RMK AO2
                 P0004 T00710067 =
2018-10-15 22:15 METAR K1P1 160215Z AUTO 00000KT 5SM RA SCT004 BKN016 OVC027 07/07 A2970 RMK AO2
                 P0003 T00690065 =
2018-10-15 21:55 METAR K1P1 160155Z AUTO 00000KT 4SM +RA SCT005 BKN010 OVC023 07/06 A2969 RMK AO2
                 P0004 T00670064 =
2018-10-15 21:35 METAR K1P1 160135Z AUTO 00000KT 4SM RA BKN005 OVC010 07/06 A2969 RMK AO2 P0002
                 T00670063 =
2018-10-15 21:15 METAR K1P1 160115Z AUTO 00000KT 4SM RA BKN005 OVC011 07/06 A2970 RMK AO2 P0001
                 T00670063 =
2018-10-15 20:55 METAR K1P1 160055Z AUTO 00000KT 3SM RA SCT002 BKN007 OVC011 07/06 A2971 RMK AO2
                 P0004 T00660063 =
2018-10-15 20:35 METAR K1P1 160035Z AUTO 00000KT 2 1/2SM -RA BKN002 OVC007 07/06 A2971 RMK AO2
                 P0003 T00650062 =
2018-10-15 20:15 METAR K1P1 160015Z AUTO 00000KT 2 1/2SM DZ OVC004 07/06 A2973 RMK AO2 P0001
                 T00660063 =
2018-10-15 19:55 METAR K1P1 152355Z AUTO 00000KT 4SM BR OVC005 07/06 A2973 RMK AO2 60003
                 T00650062 10065 20052 =
2018-10-15 19:35 METAR K1P1 152335Z AUTO 00000KT 4SM BR OVC005 07/06 A2975 RMK AO2 T00650062 =
2018-10-15 19:15 METAR K1P1 152315Z AUTO 06003KT 4SM BR OVC005 07/06 A2976 RMK AO2 T00650061 =
2018-10-15 18:55 METAR K1P1 152255Z AUTO 00000KT 2 1/2SM BR OVC005 07/06 A2978 RMK AO2 T00650061
                 =
2018-10-15 18:35 METAR K1P1 152235Z AUTO 00000KT 3SM BR OVC006 06/06 A2978 RMK AO2 T00630060 =
2018-10-15 15:55 METAR K1P1 151955Z AUTO 00000KT 5SM BR SCT004 BKN009 OVC014 06/06 A2989 RMK AO2
                 P0003 T00600056 =
2018-10-15 15:35 METAR K1P1 151935Z AUTO 00000KT 3SM RA OVC009 06/05 A2990 RMK AO2 P0003
                 T00560053 =
2018-10-15 15:15 METAR K1P1 151915Z AUTO 00000KT 4SM DZ OVC009 06/05 A2992 RMK AO2 P0001
                 T00560053 =
2018-10-15 14:55 METAR K1P1 151855Z AUTO 00000KT 5SM DZ OVC009 06/05 A2994 RMK AO2 T00550052 =
2018-10-15 14:35 METAR K1P1 151835Z AUTO 00000KT 2 1/2SM -DZ OVC009 05/05 A2994 RMK AO2 T00530050
                 =
2018-10-15 14:15 METAR K1P1 151815Z AUTO 00000KT 3SM -DZ OVC009 05/05 A2996 RMK AO2 T00530050 =
2018-10-15 13:55 METAR K1P1 151755Z AUTO 00000KT 4SM -RA OVC009 05/05 A2997 RMK AO2 P0007 60020
                 T00520050 10052 21003 =
2018-10-15 13:35 METAR K1P1 151735Z AUTO 00000KT 1 1/4SM RA OVC009 05/05 A2999 RMK AO2 P0006
                 T00500048 =
2018-10-15 13:15 METAR K1P1 151715Z AUTO 00000KT 3/4SM +RA SCT001 OVC009 05/05 A3000 RMK AO2
                 P0003 T00490046 =
2018-10-15 12:55 METAR K1P1 151655Z AUTO 00000KT 2SM RA SCT001 OVC007 05/04 A3001 RMK AO2 P0006
                 T00460044 =
2018-10-15 12:34 METAR K1P1 151635Z AUTO 00000KT 1 1/2SM RA BKN001 OVC007 04/04 A3003 RMK AO2
                 P0003 T00420040 =
2018-10-15 12:15 METAR K1P1 151615Z AUTO 00000KT 2SM DZ OVC001 04/04 A3004 RMK AO2 VIS 1V5 P0001
                 T00400038 =
2018-10-15 11:55 METAR K1P1 151555Z AUTO 00000KT 2SM RA BKN001 OVC008 04/04 A3006 RMK AO2 P0005
                 T00370035 =
2018-10-15 11:35 METAR K1P1 151535Z AUTO 00000KT 1 1/4SM RA OVC008 04/04 A3007 RMK AO2 P0003
                 T00360035 =
2018-10-15 11:15 METAR K1P1 151515Z AUTO 00000KT 2SM -RA BKN008 OVC014 04/03 A3009 RMK AO2 P0002
                 T00350032 =
2018-10-15 10:55 METAR K1P1 151455Z AUTO 00000KT 3SM -RA OVC016 03/03 A3010 RMK AO2 P0002 60002
                 T00300030 =
2018-10-15 10:35 METAR K1P1 151435Z AUTO 00000KT 1 3/4SM RA OVC020 03/03 A3010 RMK AO2 T00300030
                 =
2018-10-15 10:15 METAR K1P1 151415Z AUTO 00000KT 10SM OVC022 03/03 A3012 RMK AO2 T00270026 =
2018-10-15 09:55 METAR K1P1 151355Z AUTO 00000KT 10SM SCT025 BKN035 OVC060 03/03 A3012 RMK AO2
                 T00250025 =
2018-10-15 09:35 METAR K1P1 151335Z AUTO 00000KT 10SM OVC060 02/02 A3014 RMK AO2 T00210020 =
2018-10-15 09:15 METAR K1P1 151315Z AUTO 07003KT 10SM SCT001 OVC060 02/02 A3013 RMK AO2 T00150015
                 =
2018-10-15 08:55 METAR K1P1 151255Z AUTO 00000KT 3/4SM BR OVC001 01/01 A3016 RMK AO2 T00100010 =
2018-10-15 08:35 METAR K1P1 151235Z AUTO 00000KT 1/4SM FG OVC001 01/01 A3016 RMK AO2 T00050005 =
2018-10-15 08:15 METAR K1P1 151215Z AUTO 00000KT 1/4SM FG OVC001 00/00 A3017 RMK AO2 T00000000 =
2018-10-15 07:55 METAR K1P1 151155Z AUTO 00000KT 1/4SM FZFG OVC001 00/00 A3017 RMK AO2 T10031003
                 10003 21005 =
2018-10-15 07:35 METAR K1P1 151135Z AUTO 00000KT M1/4SM FZFG OVC001 00/00 A3017 RMK AO2 T10051005
                 =
2018-10-15 07:15 METAR K1P1 151115Z AUTO 00000KT M1/4SM FZFG OVC001 00/00 A3016 RMK AO2 T10051005
                 =
2018-10-15 06:55 METAR K1P1 151055Z AUTO 00000KT 1/4SM FZFG OVC001 00/00 A3017 RMK AO2 T10031003
                 =
2018-10-15 06:35 METAR K1P1 151035Z AUTO 00000KT 1/4SM FZFG OVC001 00/00 A3017 RMK AO2 T10031003
                 =
2018-10-15 06:15 METAR K1P1 151015Z AUTO 00000KT 1/4SM FG OVC001 00/00 A3017 RMK AO2 T10011001 =
2018-10-15 05:55 METAR K1P1 150955Z AUTO 00000KT 1/4SM FG OVC001 00/00 A3018 RMK AO2 T10011002 =
2018-10-15 05:35 METAR K1P1 150935Z AUTO 00000KT 1/4SM FG OVC001 00/00 A3018 RMK AO2 T00000000 =
2018-10-15 05:15 METAR K1P1 150915Z AUTO 00000KT 1/4SM FG OVC001 00/00 A3018 RMK AO2 T00000000 =
2018-10-15 04:55 METAR K1P1 150855Z AUTO 00000KT 1/4SM FG OVC001 00/00 A3019 RMK AO2 T00000000 =
2018-10-15 04:35 METAR K1P1 150835Z AUTO 00000KT 1/4SM FG OVC001 00/00 A3019 RMK AO2 T00000000 =
2018-10-15 04:15 METAR K1P1 150815Z AUTO 00000KT 1/4SM FG OVC001 00/00 A3019 RMK AO2 T00000000 =
2018-10-15 03:55 METAR K1P1 150755Z AUTO 00000KT 1/4SM FG OVC001 00/00 A3019 RMK AO2 T00000000 =
2018-10-15 03:35 METAR K1P1 150735Z AUTO 00000KT 1/4SM FG OVC001 00/00 A3020 RMK AO2 T00000000 =
2018-10-15 03:15 METAR K1P1 150715Z AUTO 00000KT 1/4SM FG OVC001 00/00 A3020 RMK AO2 T00000000 =
2018-10-15 02:55 METAR K1P1 150655Z AUTO 00000KT 1/4SM FG OVC001 00/00 A3020 RMK AO2 T00000000 =
2018-10-15 02:35 METAR K1P1 150635Z AUTO 00000KT 1/4SM FG OVC001 00/00 A3020 RMK AO2 T00020000 =
2018-10-15 02:15 METAR K1P1 150615Z AUTO 00000KT 1/4SM FG OVC001 00/00 A3021 RMK AO2 T00010000 =
2018-10-15 01:55 METAR K1P1 150555Z AUTO 00000KT 2 1/2SM BR OVC001 00/00 A3020 RMK AO2 T00030001
                 10040 20000 =
2018-10-15 01:35 METAR K1P1 150535Z AUTO 00000KT 2SM BR OVC001 00/00 A3020 RMK AO2 T00000000 =
2018-10-15 01:15 METAR K1P1 150515Z AUTO 00000KT 1/2SM FG OVC001 00/00 A3020 RMK AO2 T00030001 =
2018-10-15 00:55 METAR K1P1 150455Z AUTO 00000KT 7SM OVC001 00/00 A3021 RMK AO2 T00030001 =
2018-10-15 00:35 METAR K1P1 150435Z AUTO 00000KT 1 3/4SM BR BKN001 01/01 A3021 RMK AO2 T00070005
                 =
2018-10-15 00:15 METAR K1P1 150415Z AUTO 00000KT 10SM SCT001 01/00 A3021 RMK AO2 T00050002 =
2018-10-14 23:55 METAR K1P1 150355Z AUTO 00000KT 10SM BKN001 01/01 A3021 RMK AO2 T00080005
                 401381010 =

Support USWX by starting your Amazon purchase here.